sensor_id;sensor_type;location;lat;lon;timestamp;P1;durP1;ratioP1;P2;durP2;ratioP2
38379;SDS011;38377;47.418;18.882;2023-08-30T00:00:56;21.67;;;18.75;;
38379;SDS011;38377;47.418;18.882;2023-08-30T00:03:21;22.25;;;19.95;;
38379;SDS011;38377;47.418;18.882;2023-08-30T00:05:47;25.58;;;21.08;;
38379;SDS011;38377;47.418;18.882;2023-08-30T00:08:16;22.23;;;19.83;;
38379;SDS011;38377;47.418;18.882;2023-08-30T00:10:45;24.27;;;21.15;;
38379;SDS011;38377;47.418;18.882;2023-08-30T00:13:11;24.13;;;20.65;;
38379;SDS011;38377;47.418;18.882;2023-08-30T00:15:36;23.80;;;20.05;;
38379;SDS011;38377;47.418;18.882;2023-08-30T00:18:02;24.25;;;20.67;;
38379;SDS011;38377;47.418;18.882;2023-08-30T00:20:29;28.15;;;21.70;;
38379;SDS011;38377;47.418;18.882;2023-08-30T00:22:54;28.63;;;22.48;;
38379;SDS011;38377;47.418;18.882;2023-08-30T00:25:20;26.75;;;22.52;;
38379;SDS011;38377;47.418;18.882;2023-08-30T00:27:45;29.92;;;23.63;;
38379;SDS011;38377;47.418;18.882;2023-08-30T00:30:11;28.23;;;23.27;;
38379;SDS011;38377;47.418;18.882;2023-08-30T00:32:37;31.30;;;24.65;;
38379;SDS011;38377;47.418;18.882;2023-08-30T00:35:03;29.02;;;24.98;;
38379;SDS011;38377;47.418;18.882;2023-08-30T00:37:29;31.98;;;25.50;;
38379;SDS011;38377;47.418;18.882;2023-08-30T00:39:54;30.52;;;25.45;;
38379;SDS011;38377;47.418;18.882;2023-08-30T00:42:20;30.13;;;24.92;;
38379;SDS011;38377;47.418;18.882;2023-08-30T00:44:46;30.52;;;25.45;;
38379;SDS011;38377;47.418;18.882;2023-08-30T00:47:11;29.67;;;24.95;;
38379;SDS011;38377;47.418;18.882;2023-08-30T00:49:37;30.90;;;25.48;;
38379;SDS011;38377;47.418;18.882;2023-08-30T00:52:05;28.30;;;24.25;;
38379;SDS011;38377;47.418;18.882;2023-08-30T00:54:33;32.40;;;24.35;;
38379;SDS011;38377;47.418;18.882;2023-08-30T00:57:00;27.80;;;23.20;;
38379;SDS011;38377;47.418;18.882;2023-08-30T00:59:29;30.02;;;24.33;;
38379;SDS011;38377;47.418;18.882;2023-08-30T01:01:57;28.90;;;24.05;;
38379;SDS011;38377;47.418;18.882;2023-08-30T01:04:24;30.42;;;24.15;;
38379;SDS011;38377;47.418;18.882;2023-08-30T01:06:50;36.53;;;25.50;;
38379;SDS011;38377;47.418;18.882;2023-08-30T01:09:17;33.40;;;24.98;;
38379;SDS011;38377;47.418;18.882;2023-08-30T01:11:48;34.40;;;25.55;;
38379;SDS011;38377;47.418;18.882;2023-08-30T01:14:22;35.45;;;26.02;;
38379;SDS011;38377;47.418;18.882;2023-08-30T01:16:54;36.00;;;24.88;;
38379;SDS011;38377;47.418;18.882;2023-08-30T01:28:21;33.17;;;23.23;;
38379;SDS011;38377;47.418;18.882;2023-08-30T01:30:49;30.13;;;22.48;;
38379;SDS011;38377;47.418;18.882;2023-08-30T01:33:19;29.20;;;21.27;;
38379;SDS011;38377;47.418;18.882;2023-08-30T01:35:46;30.40;;;21.05;;
38379;SDS011;38377;47.418;18.882;2023-08-30T01:38:12;34.60;;;22.38;;
38379;SDS011;38377;47.418;18.882;2023-08-30T01:40:41;32.58;;;22.05;;
38379;SDS011;38377;47.418;18.882;2023-08-30T01:43:08;34.53;;;22.67;;
38379;SDS011;38377;47.418;18.882;2023-08-30T01:45:41;33.58;;;22.25;;
38379;SDS011;38377;47.418;18.882;2023-08-30T01:48:10;35.22;;;23.13;;
38379;SDS011;38377;47.418;18.882;2023-08-30T01:50:43;36.70;;;24.73;;
38379;SDS011;38377;47.418;18.882;2023-08-30T01:53:12;35.92;;;22.35;;
38379;SDS011;38377;47.418;18.882;2023-08-30T01:55:41;34.90;;;24.00;;
38379;SDS011;38377;47.418;18.882;2023-08-30T01:58:07;35.85;;;23.60;;
38379;SDS011;38377;47.418;18.882;2023-08-30T02:00:37;32.08;;;22.95;;
38379;SDS011;38377;47.418;18.882;2023-08-30T02:03:11;34.38;;;23.20;;
38379;SDS011;38377;47.418;18.882;2023-08-30T02:05:39;35.22;;;22.63;;
38379;SDS011;38377;47.418;18.882;2023-08-30T02:08:22;33.97;;;23.25;;
38379;SDS011;38377;47.418;18.882;2023-08-30T02:10:56;42.28;;;26.90;;
38379;SDS011;38377;47.418;18.882;2023-08-30T02:13:25;36.47;;;26.25;;
38379;SDS011;38377;47.418;18.882;2023-08-30T02:15:52;36.85;;;26.50;;
38379;SDS011;38377;47.418;18.882;2023-08-30T02:18:25;35.20;;;25.20;;
38379;SDS011;38377;47.418;18.882;2023-08-30T02:20:51;36.60;;;26.17;;
38379;SDS011;38377;47.418;18.882;2023-08-30T02:23:17;36.33;;;27.13;;
38379;SDS011;38377;47.418;18.882;2023-08-30T02:25:43;38.25;;;26.67;;
38379;SDS011;38377;47.418;18.882;2023-08-30T02:28:09;37.50;;;26.10;;
38379;SDS011;38377;47.418;18.882;2023-08-30T02:30:35;37.97;;;26.88;;
38379;SDS011;38377;47.418;18.882;2023-08-30T02:33:00;39.70;;;27.15;;
38379;SDS011;38377;47.418;18.882;2023-08-30T02:35:26;36.13;;;26.83;;
38379;SDS011;38377;47.418;18.882;2023-08-30T02:37:52;37.97;;;26.58;;
38379;SDS011;38377;47.418;18.882;2023-08-30T02:40:18;37.42;;;27.67;;
38379;SDS011;38377;47.418;18.882;2023-08-30T02:42:43;37.38;;;26.65;;
38379;SDS011;38377;47.418;18.882;2023-08-30T02:45:09;42.05;;;28.45;;
38379;SDS011;38377;47.418;18.882;2023-08-30T02:47:35;36.33;;;26.90;;
38379;SDS011;38377;47.418;18.882;2023-08-30T02:50:00;35.72;;;24.42;;
38379;SDS011;38377;47.418;18.882;2023-08-30T02:52:26;37.60;;;26.15;;
38379;SDS011;38377;47.418;18.882;2023-08-30T02:54:52;39.60;;;24.83;;
38379;SDS011;38377;47.418;18.882;2023-08-30T02:57:20;34.72;;;23.85;;
38379;SDS011;38377;47.418;18.882;2023-08-30T02:59:45;35.67;;;24.27;;
38379;SDS011;38377;47.418;18.882;2023-08-30T03:02:11;38.10;;;24.70;;
38379;SDS011;38377;47.418;18.882;2023-08-30T03:04:37;35.33;;;24.73;;
38379;SDS011;38377;47.418;18.882;2023-08-30T03:07:03;37.78;;;23.50;;
38379;SDS011;38377;47.418;18.882;2023-08-30T03:09:29;39.30;;;24.27;;
38379;SDS011;38377;47.418;18.882;2023-08-30T03:11:55;37.13;;;24.27;;
38379;SDS011;38377;47.418;18.882;2023-08-30T03:14:21;35.08;;;23.95;;
38379;SDS011;38377;47.418;18.882;2023-08-30T03:16:46;35.80;;;24.00;;
38379;SDS011;38377;47.418;18.882;2023-08-30T03:19:12;38.00;;;24.10;;
38379;SDS011;38377;47.418;18.882;2023-08-30T03:21:42;42.53;;;25.08;;
38379;SDS011;38377;47.418;18.882;2023-08-30T03:24:07;34.95;;;23.63;;
38379;SDS011;38377;47.418;18.882;2023-08-30T03:26:33;37.40;;;23.85;;
38379;SDS011;38377;47.418;18.882;2023-08-30T03:28:59;34.38;;;22.80;;
38379;SDS011;38377;47.418;18.882;2023-08-30T03:31:24;34.40;;;23.25;;
38379;SDS011;38377;47.418;18.882;2023-08-30T03:33:50;33.53;;;23.60;;
38379;SDS011;38377;47.418;18.882;2023-08-30T03:36:16;32.55;;;21.60;;
38379;SDS011;38377;47.418;18.882;2023-08-30T03:38:43;30.15;;;22.08;;
38379;SDS011;38377;47.418;18.882;2023-08-30T03:41:10;34.03;;;23.30;;
38379;SDS011;38377;47.418;18.882;2023-08-30T03:43:36;35.05;;;22.92;;
38379;SDS011;38377;47.418;18.882;2023-08-30T03:46:02;32.13;;;22.52;;
38379;SDS011;38377;47.418;18.882;2023-08-30T03:48:29;30.65;;;21.00;;
38379;SDS011;38377;47.418;18.882;2023-08-30T03:50:55;31.73;;;22.10;;
38379;SDS011;38377;47.418;18.882;2023-08-30T03:53:22;32.85;;;21.45;;
38379;SDS011;38377;47.418;18.882;2023-08-30T03:55:48;31.60;;;21.20;;
38379;SDS011;38377;47.418;18.882;2023-08-30T03:58:15;31.60;;;20.98;;
38379;SDS011;38377;47.418;18.882;2023-08-30T04:00:41;33.53;;;22.67;;
38379;SDS011;38377;47.418;18.882;2023-08-30T04:03:07;32.22;;;20.17;;
38379;SDS011;38377;47.418;18.882;2023-08-30T04:05:35;34.55;;;21.90;;
38379;SDS011;38377;47.418;18.882;2023-08-30T04:08:01;32.88;;;22.60;;
38379;SDS011;38377;47.418;18.882;2023-08-30T04:10:28;31.55;;;21.73;;
38379;SDS011;38377;47.418;18.882;2023-08-30T04:12:54;35.67;;;21.77;;
38379;SDS011;38377;47.418;18.882;2023-08-30T04:15:19;31.60;;;22.27;;
38379;SDS011;38377;47.418;18.882;2023-08-30T04:17:45;33.58;;;23.17;;
38379;SDS011;38377;47.418;18.882;2023-08-30T04:20:11;31.10;;;22.13;;
38379;SDS011;38377;47.418;18.882;2023-08-30T04:22:37;33.47;;;22.42;;
38379;SDS011;38377;47.418;18.882;2023-08-30T04:25:04;32.35;;;23.60;;
38379;SDS011;38377;47.418;18.882;2023-08-30T04:27:30;34.75;;;22.45;;
38379;SDS011;38377;47.418;18.882;2023-08-30T04:29:56;31.25;;;22.60;;
38379;SDS011;38377;47.418;18.882;2023-08-30T04:32:21;34.35;;;23.65;;
38379;SDS011;38377;47.418;18.882;2023-08-30T04:34:47;31.88;;;21.45;;
38379;SDS011;38377;47.418;18.882;2023-08-30T04:37:13;29.08;;;20.83;;
38379;SDS011;38377;47.418;18.882;2023-08-30T04:39:39;30.40;;;22.45;;
38379;SDS011;38377;47.418;18.882;2023-08-30T04:42:05;30.83;;;20.60;;
38379;SDS011;38377;47.418;18.882;2023-08-30T04:44:31;27.33;;;19.92;;
38379;SDS011;38377;47.418;18.882;2023-08-30T04:46:57;29.52;;;20.45;;
38379;SDS011;38377;47.418;18.882;2023-08-30T04:49:23;28.58;;;20.58;;
38379;SDS011;38377;47.418;18.882;2023-08-30T04:51:50;31.20;;;20.30;;
38379;SDS011;38377;47.418;18.882;2023-08-30T04:54:16;27.25;;;19.45;;
38379;SDS011;38377;47.418;18.882;2023-08-30T04:56:42;29.05;;;20.60;;
38379;SDS011;38377;47.418;18.882;2023-08-30T04:59:08;30.38;;;19.60;;
38379;SDS011;38377;47.418;18.882;2023-08-30T05:01:34;29.65;;;20.02;;
38379;SDS011;38377;47.418;18.882;2023-08-30T05:03:59;29.90;;;20.23;;
38379;SDS011;38377;47.418;18.882;2023-08-30T05:06:27;26.17;;;20.50;;
38379;SDS011;38377;47.418;18.882;2023-08-30T05:08:53;29.65;;;20.10;;
38379;SDS011;38377;47.418;18.882;2023-08-30T05:11:18;30.83;;;20.48;;
38379;SDS011;38377;47.418;18.882;2023-08-30T05:13:44;27.98;;;20.50;;
38379;SDS011;38377;47.418;18.882;2023-08-30T05:16:10;28.00;;;20.55;;
38379;SDS011;38377;47.418;18.882;2023-08-30T05:18:35;28.00;;;19.45;;
38379;SDS011;38377;47.418;18.882;2023-08-30T05:21:01;26.92;;;19.15;;
38379;SDS011;38377;47.418;18.882;2023-08-30T05:23:30;26.17;;;18.98;;
38379;SDS011;38377;47.418;18.882;2023-08-30T05:25:56;28.08;;;19.80;;
38379;SDS011;38377;47.418;18.882;2023-08-30T05:28:22;23.23;;;17.42;;
38379;SDS011;38377;47.418;18.882;2023-08-30T05:30:48;23.85;;;16.88;;
38379;SDS011;38377;47.418;18.882;2023-08-30T05:33:13;22.70;;;18.05;;
38379;SDS011;38377;47.418;18.882;2023-08-30T05:35:39;28.65;;;18.17;;
38379;SDS011;38377;47.418;18.882;2023-08-30T05:38:04;22.02;;;16.08;;
38379;SDS011;38377;47.418;18.882;2023-08-30T05:40:30;25.05;;;18.60;;
38379;SDS011;38377;47.418;18.882;2023-08-30T05:42:56;23.30;;;19.00;;
38379;SDS011;38377;47.418;18.882;2023-08-30T05:45:22;24.05;;;18.38;;
38379;SDS011;38377;47.418;18.882;2023-08-30T05:47:47;23.95;;;18.00;;
38379;SDS011;38377;47.418;18.882;2023-08-30T05:50:13;25.55;;;20.08;;
38379;SDS011;38377;47.418;18.882;2023-08-30T05:52:39;21.30;;;17.48;;
38379;SDS011;38377;47.418;18.882;2023-08-30T05:55:09;22.90;;;18.70;;
38379;SDS011;38377;47.418;18.882;2023-08-30T05:57:35;25.45;;;19.75;;
38379;SDS011;38377;47.418;18.882;2023-08-30T06:00:01;25.42;;;18.58;;
38379;SDS011;38377;47.418;18.882;2023-08-30T06:02:27;25.58;;;19.75;;
38379;SDS011;38377;47.418;18.882;2023-08-30T06:04:53;26.45;;;19.95;;
38379;SDS011;38377;47.418;18.882;2023-08-30T06:07:18;22.85;;;18.83;;
38379;SDS011;38377;47.418;18.882;2023-08-30T06:09:44;22.85;;;18.15;;
38379;SDS011;38377;47.418;18.882;2023-08-30T06:12:10;25.30;;;18.50;;
38379;SDS011;38377;47.418;18.882;2023-08-30T06:14:35;24.83;;;19.33;;
38379;SDS011;38377;47.418;18.882;2023-08-30T06:17:01;23.77;;;17.73;;
38379;SDS011;38377;47.418;18.882;2023-08-30T06:19:27;21.45;;;18.13;;
38379;SDS011;38377;47.418;18.882;2023-08-30T06:21:53;22.83;;;17.92;;
38379;SDS011;38377;47.418;18.882;2023-08-30T06:24:18;26.65;;;18.95;;
38379;SDS011;38377;47.418;18.882;2023-08-30T06:26:44;21.98;;;17.38;;
38379;SDS011;38377;47.418;18.882;2023-08-30T06:29:10;22.35;;;17.42;;
38379;SDS011;38377;47.418;18.882;2023-08-30T06:31:35;21.95;;;17.67;;
38379;SDS011;38377;47.418;18.882;2023-08-30T06:34:02;24.25;;;18.35;;
38379;SDS011;38377;47.418;18.882;2023-08-30T06:36:27;22.52;;;18.02;;
38379;SDS011;38377;47.418;18.882;2023-08-30T06:38:56;22.52;;;17.33;;
38379;SDS011;38377;47.418;18.882;2023-08-30T06:41:22;22.63;;;17.10;;
38379;SDS011;38377;47.418;18.882;2023-08-30T06:43:48;19.38;;;16.25;;
38379;SDS011;38377;47.418;18.882;2023-08-30T06:46:14;21.27;;;15.95;;
38379;SDS011;38377;47.418;18.882;2023-08-30T06:48:39;18.27;;;15.90;;
38379;SDS011;38377;47.418;18.882;2023-08-30T06:51:05;19.90;;;15.88;;
38379;SDS011;38377;47.418;18.882;2023-08-30T06:53:30;22.48;;;16.10;;
38379;SDS011;38377;47.418;18.882;2023-08-30T06:55:57;20.70;;;15.20;;
38379;SDS011;38377;47.418;18.882;2023-08-30T06:58:23;21.60;;;16.38;;
38379;SDS011;38377;47.418;18.882;2023-08-30T07:00:49;19.05;;;16.17;;
38379;SDS011;38377;47.418;18.882;2023-08-30T07:03:14;21.73;;;16.30;;
38379;SDS011;38377;47.418;18.882;2023-08-30T07:05:40;20.48;;;16.50;;
38379;SDS011;38377;47.418;18.882;2023-08-30T07:08:08;21.00;;;17.13;;
38379;SDS011;38377;47.418;18.882;2023-08-30T07:10:34;21.20;;;16.13;;
38379;SDS011;38377;47.418;18.882;2023-08-30T07:13:00;24.45;;;17.25;;
38379;SDS011;38377;47.418;18.882;2023-08-30T07:15:25;22.38;;;17.20;;
38379;SDS011;38377;47.418;18.882;2023-08-30T07:17:51;19.70;;;17.05;;
38379;SDS011;38377;47.418;18.882;2023-08-30T07:20:18;20.60;;;15.25;;
38379;SDS011;38377;47.418;18.882;2023-08-30T07:22:44;20.77;;;15.85;;
38379;SDS011;38377;47.418;18.882;2023-08-30T07:25:10;19.95;;;16.60;;
38379;SDS011;38377;47.418;18.882;2023-08-30T07:27:36;19.70;;;16.30;;
38379;SDS011;38377;47.418;18.882;2023-08-30T07:30:02;17.30;;;15.40;;
38379;SDS011;38377;47.418;18.882;2023-08-30T07:32:29;20.55;;;15.05;;
38379;SDS011;38377;47.418;18.882;2023-08-30T07:34:55;18.98;;;14.45;;
38379;SDS011;38377;47.418;18.882;2023-08-30T07:37:21;15.98;;;14.27;;
38379;SDS011;38377;47.418;18.882;2023-08-30T07:39:47;17.35;;;14.20;;
38379;SDS011;38377;47.418;18.882;2023-08-30T07:42:16;18.77;;;14.10;;
38379;SDS011;38377;47.418;18.882;2023-08-30T07:44:41;17.65;;;14.15;;
38379;SDS011;38377;47.418;18.882;2023-08-30T07:47:07;18.80;;;14.15;;
38379;SDS011;38377;47.418;18.882;2023-08-30T07:49:33;18.45;;;14.25;;
38379;SDS011;38377;47.418;18.882;2023-08-30T07:51:59;17.27;;;13.73;;
38379;SDS011;38377;47.418;18.882;2023-08-30T07:54:24;18.85;;;14.43;;
38379;SDS011;38377;47.418;18.882;2023-08-30T07:56:50;20.38;;;14.38;;
38379;SDS011;38377;47.418;18.882;2023-08-30T07:59:16;21.63;;;15.85;;
38379;SDS011;38377;47.418;18.882;2023-08-30T08:01:41;18.05;;;15.10;;
38379;SDS011;38377;47.418;18.882;2023-08-30T08:04:07;16.58;;;12.73;;
38379;SDS011;38377;47.418;18.882;2023-08-30T08:06:33;19.90;;;14.55;;
38379;SDS011;38377;47.418;18.882;2023-08-30T08:08:59;15.98;;;13.82;;
38379;SDS011;38377;47.418;18.882;2023-08-30T08:11:25;17.13;;;13.93;;
38379;SDS011;38377;47.418;18.882;2023-08-30T08:13:51;17.52;;;13.52;;
38379;SDS011;38377;47.418;18.882;2023-08-30T08:16:16;18.95;;;14.25;;
38379;SDS011;38377;47.418;18.882;2023-08-30T08:18:42;16.25;;;13.20;;
38379;SDS011;38377;47.418;18.882;2023-08-30T08:21:08;16.58;;;14.20;;
38379;SDS011;38377;47.418;18.882;2023-08-30T08:23:33;17.42;;;14.68;;
38379;SDS011;38377;47.418;18.882;2023-08-30T08:25:59;19.23;;;14.73;;
38379;SDS011;38377;47.418;18.882;2023-08-30T08:28:25;16.88;;;15.07;;
38379;SDS011;38377;47.418;18.882;2023-08-30T08:30:52;15.15;;;13.50;;
38379;SDS011;38377;47.418;18.882;2023-08-30T08:33:18;17.27;;;12.88;;
38379;SDS011;38377;47.418;18.882;2023-08-30T08:35:44;17.80;;;15.98;;
38379;SDS011;38377;47.418;18.882;2023-08-30T08:38:10;17.45;;;15.50;;
38379;SDS011;38377;47.418;18.882;2023-08-30T08:40:36;19.50;;;14.85;;
38379;SDS011;38377;47.418;18.882;2023-08-30T08:43:04;17.88;;;15.15;;
38379;SDS011;38377;47.418;18.882;2023-08-30T08:45:31;17.00;;;15.20;;
38379;SDS011;38377;47.418;18.882;2023-08-30T08:48:06;16.95;;;15.25;;
38379;SDS011;38377;47.418;18.882;2023-08-30T08:50:32;16.80;;;13.77;;
38379;SDS011;38377;47.418;18.882;2023-08-30T08:53:05;16.38;;;14.60;;
38379;SDS011;38377;47.418;18.882;2023-08-30T08:55:32;16.52;;;14.77;;
38379;SDS011;38377;47.418;18.882;2023-08-30T08:57:59;16.80;;;15.10;;
38379;SDS011;38377;47.418;18.882;2023-08-30T09:00:26;16.08;;;14.40;;
38379;SDS011;38377;47.418;18.882;2023-08-30T09:02:55;17.33;;;14.50;;
38379;SDS011;38377;47.418;18.882;2023-08-30T09:05:21;16.15;;;14.50;;
38379;SDS011;38377;47.418;18.882;2023-08-30T09:07:47;16.77;;;14.35;;
38379;SDS011;38377;47.418;18.882;2023-08-30T09:10:18;14.63;;;12.73;;
38379;SDS011;38377;47.418;18.882;2023-08-30T09:12:44;14.18;;;12.10;;
38379;SDS011;38377;47.418;18.882;2023-08-30T09:15:10;16.33;;;13.73;;
38379;SDS011;38377;47.418;18.882;2023-08-30T09:17:36;14.38;;;11.68;;
38379;SDS011;38377;47.418;18.882;2023-08-30T09:20:10;13.07;;;11.25;;
38379;SDS011;38377;47.418;18.882;2023-08-30T09:22:40;14.82;;;10.38;;
38379;SDS011;38377;47.418;18.882;2023-08-30T09:25:11;12.32;;;10.27;;
38379;SDS011;38377;47.418;18.882;2023-08-30T09:27:48;10.65;;;9.50;;
38379;SDS011;38377;47.418;18.882;2023-08-30T09:30:14;11.23;;;8.88;;
38379;SDS011;38377;47.418;18.882;2023-08-30T09:32:46;10.65;;;8.70;;
38379;SDS011;38377;47.418;18.882;2023-08-30T09:35:11;10.60;;;9.00;;
38379;SDS011;38377;47.418;18.882;2023-08-30T09:37:37;9.27;;;8.23;;
38379;SDS011;38377;47.418;18.882;2023-08-30T09:40:03;8.88;;;7.97;;
38379;SDS011;38377;47.418;18.882;2023-08-30T09:42:29;9.50;;;8.10;;
38379;SDS011;38377;47.418;18.882;2023-08-30T09:44:56;8.80;;;7.90;;
38379;SDS011;38377;47.418;18.882;2023-08-30T09:47:24;9.27;;;8.18;;
38379;SDS011;38377;47.418;18.882;2023-08-30T09:49:51;8.50;;;7.53;;
38379;SDS011;38377;47.418;18.882;2023-08-30T09:52:20;10.02;;;9.02;;
38379;SDS011;38377;47.418;18.882;2023-08-30T09:54:50;10.05;;;9.15;;
38379;SDS011;38377;47.418;18.882;2023-08-30T09:57:16;9.85;;;8.85;;
38379;SDS011;38377;47.418;18.882;2023-08-30T09:59:43;8.82;;;7.93;;
38379;SDS011;38377;47.418;18.882;2023-08-30T10:02:10;8.95;;;8.05;;
38379;SDS011;38377;47.418;18.882;2023-08-30T10:04:37;9.07;;;8.18;;
38379;SDS011;38377;47.418;18.882;2023-08-30T10:07:06;12.18;;;8.05;;
38379;SDS011;38377;47.418;18.882;2023-08-30T10:09:33;8.73;;;7.93;;
38379;SDS011;38377;47.418;18.882;2023-08-30T10:11:58;8.32;;;7.47;;
38379;SDS011;38377;47.418;18.882;2023-08-30T10:14:26;8.35;;;7.53;;
38379;SDS011;38377;47.418;18.882;2023-08-30T10:16:54;8.35;;;7.40;;
38379;SDS011;38377;47.418;18.882;2023-08-30T10:19:26;8.05;;;7.25;;
38379;SDS011;38377;47.418;18.882;2023-08-30T10:22:14;8.63;;;7.75;;
38379;SDS011;38377;47.418;18.882;2023-08-30T10:24:44;8.50;;;7.30;;
38379;SDS011;38377;47.418;18.882;2023-08-30T10:27:16;8.30;;;7.50;;
38379;SDS011;38377;47.418;18.882;2023-08-30T10:29:43;8.65;;;7.75;;
38379;SDS011;38377;47.418;18.882;2023-08-30T10:32:10;7.22;;;6.35;;
38379;SDS011;38377;47.418;18.882;2023-08-30T10:34:36;7.80;;;6.97;;
38379;SDS011;38377;47.418;18.882;2023-08-30T10:37:03;7.65;;;6.65;;
38379;SDS011;38377;47.418;18.882;2023-08-30T10:39:36;8.07;;;6.85;;
38379;SDS011;38377;47.418;18.882;2023-08-30T10:42:13;7.30;;;6.55;;
38379;SDS011;38377;47.418;18.882;2023-08-30T10:44:46;6.55;;;5.40;;
38379;SDS011;38377;47.418;18.882;2023-08-30T10:47:19;6.03;;;5.10;;
38379;SDS011;38377;47.418;18.882;2023-08-30T10:49:53;6.72;;;4.78;;
38379;SDS011;38377;47.418;18.882;2023-08-30T10:52:20;7.30;;;5.20;;
38379;SDS011;38377;47.418;18.882;2023-08-30T10:54:46;6.40;;;5.15;;
38379;SDS011;38377;47.418;18.882;2023-08-30T10:57:12;5.13;;;4.63;;
38379;SDS011;38377;47.418;18.882;2023-08-30T10:59:39;5.38;;;4.88;;
38379;SDS011;38377;47.418;18.882;2023-08-30T11:02:06;4.50;;;4.07;;
38379;SDS011;38377;47.418;18.882;2023-08-30T11:04:32;4.97;;;4.53;;
38379;SDS011;38377;47.418;18.882;2023-08-30T11:06:57;7.10;;;5.47;;
38379;SDS011;38377;47.418;18.882;2023-08-30T11:09:23;5.25;;;4.85;;
38379;SDS011;38377;47.418;18.882;2023-08-30T11:11:50;5.70;;;4.13;;
38379;SDS011;38377;47.418;18.882;2023-08-30T11:14:17;5.63;;;4.75;;
38379;SDS011;38377;47.418;18.882;2023-08-30T11:16:43;4.13;;;3.72;;
38379;SDS011;38377;47.418;18.882;2023-08-30T11:19:10;6.43;;;4.47;;
38379;SDS011;38377;47.418;18.882;2023-08-30T11:21:39;5.30;;;4.43;;
38379;SDS011;38377;47.418;18.882;2023-08-30T11:24:08;4.13;;;3.72;;
38379;SDS011;38377;47.418;18.882;2023-08-30T11:26:34;6.07;;;5.47;;
38379;SDS011;38377;47.418;18.882;2023-08-30T11:29:06;5.90;;;4.82;;
38379;SDS011;38377;47.418;18.882;2023-08-30T11:31:33;5.30;;;4.80;;
38379;SDS011;38377;47.418;18.882;2023-08-30T11:33:59;4.20;;;3.80;;
38379;SDS011;38377;47.418;18.882;2023-08-30T11:36:31;6.25;;;4.80;;
38379;SDS011;38377;47.418;18.882;2023-08-30T11:39:00;5.78;;;4.40;;
38379;SDS011;38377;47.418;18.882;2023-08-30T11:41:25;4.95;;;3.90;;
38379;SDS011;38377;47.418;18.882;2023-08-30T11:43:52;4.88;;;4.22;;
38379;SDS011;38377;47.418;18.882;2023-08-30T11:46:18;7.07;;;4.03;;
38379;SDS011;38377;47.418;18.882;2023-08-30T11:48:44;6.63;;;4.10;;
38379;SDS011;38377;47.418;18.882;2023-08-30T11:51:12;5.30;;;4.45;;
38379;SDS011;38377;47.418;18.882;2023-08-30T11:53:38;5.45;;;4.95;;
38379;SDS011;38377;47.418;18.882;2023-08-30T11:56:08;5.95;;;5.28;;
38379;SDS011;38377;47.418;18.882;2023-08-30T11:58:34;5.50;;;5.00;;
38379;SDS011;38377;47.418;18.882;2023-08-30T12:01:01;6.30;;;5.70;;
38379;SDS011;38377;47.418;18.882;2023-08-30T12:03:30;7.25;;;5.53;;
38379;SDS011;38377;47.418;18.882;2023-08-30T12:05:57;5.65;;;4.88;;
38379;SDS011;38377;47.418;18.882;2023-08-30T12:08:24;7.85;;;5.38;;
38379;SDS011;38377;47.418;18.882;2023-08-30T12:10:50;6.05;;;5.00;;
38379;SDS011;38377;47.418;18.882;2023-08-30T12:13:23;5.75;;;4.80;;
38379;SDS011;38377;47.418;18.882;2023-08-30T12:15:49;5.38;;;4.88;;
38379;SDS011;38377;47.418;18.882;2023-08-30T12:18:16;6.00;;;5.28;;
38379;SDS011;38377;47.418;18.882;2023-08-30T12:20:54;4.60;;;4.20;;
38379;SDS011;38377;47.418;18.882;2023-08-30T12:23:27;4.88;;;4.38;;
38379;SDS011;38377;47.418;18.882;2023-08-30T12:26:03;6.38;;;4.60;;
38379;SDS011;38377;47.418;18.882;2023-08-30T12:28:29;5.43;;;4.93;;
38379;SDS011;38377;47.418;18.882;2023-08-30T12:30:56;5.15;;;4.65;;
38379;SDS011;38377;47.418;18.882;2023-08-30T12:33:23;6.78;;;4.95;;
38379;SDS011;38377;47.418;18.882;2023-08-30T12:35:53;5.77;;;4.90;;
38379;SDS011;38377;47.418;18.882;2023-08-30T12:38:19;6.43;;;4.82;;
38379;SDS011;38377;47.418;18.882;2023-08-30T12:40:48;4.65;;;4.15;;
38379;SDS011;38377;47.418;18.882;2023-08-30T12:43:18;5.95;;;5.13;;
38379;SDS011;38377;47.418;18.882;2023-08-30T12:45:45;5.68;;;5.07;;
38379;SDS011;38377;47.418;18.882;2023-08-30T12:48:11;9.50;;;5.57;;
38379;SDS011;38377;47.418;18.882;2023-08-30T12:50:40;7.20;;;5.65;;
38379;SDS011;38377;47.418;18.882;2023-08-30T12:53:07;6.20;;;4.85;;
38379;SDS011;38377;47.418;18.882;2023-08-30T12:55:34;6.80;;;4.90;;
38379;SDS011;38377;47.418;18.882;2023-08-30T12:58:00;6.18;;;5.13;;
38379;SDS011;38377;47.418;18.882;2023-08-30T13:00:27;7.95;;;4.88;;
38379;SDS011;38377;47.418;18.882;2023-08-30T13:02:53;5.72;;;5.13;;
38379;SDS011;38377;47.418;18.882;2023-08-30T13:05:19;5.47;;;4.78;;
38379;SDS011;38377;47.418;18.882;2023-08-30T13:07:46;5.90;;;4.57;;
38379;SDS011;38377;47.418;18.882;2023-08-30T13:10:13;6.47;;;5.40;;
38379;SDS011;38377;47.418;18.882;2023-08-30T13:12:38;6.75;;;4.82;;
38379;SDS011;38377;47.418;18.882;2023-08-30T13:15:05;4.95;;;4.43;;
38379;SDS011;38377;47.418;18.882;2023-08-30T13:17:31;5.63;;;4.65;;
38379;SDS011;38377;47.418;18.882;2023-08-30T13:19:57;4.72;;;4.22;;
38379;SDS011;38377;47.418;18.882;2023-08-30T13:22:23;6.30;;;4.40;;
38379;SDS011;38377;47.418;18.882;2023-08-30T13:24:49;7.82;;;5.13;;
38379;SDS011;38377;47.418;18.882;2023-08-30T13:27:15;6.50;;;5.10;;
38379;SDS011;38377;47.418;18.882;2023-08-30T13:29:41;5.88;;;4.40;;
38379;SDS011;38377;47.418;18.882;2023-08-30T13:32:07;4.88;;;4.38;;
38379;SDS011;38377;47.418;18.882;2023-08-30T13:34:32;6.95;;;3.90;;
38379;SDS011;38377;47.418;18.882;2023-08-30T13:36:58;5.63;;;4.10;;
38379;SDS011;38377;47.418;18.882;2023-08-30T13:39:23;4.40;;;3.78;;
38379;SDS011;38377;47.418;18.882;2023-08-30T13:41:49;5.07;;;3.95;;
38379;SDS011;38377;47.418;18.882;2023-08-30T13:44:15;6.38;;;4.13;;
38379;SDS011;38377;47.418;18.882;2023-08-30T13:46:41;5.40;;;4.32;;
38379;SDS011;38377;47.418;18.882;2023-08-30T13:49:08;5.15;;;3.85;;
38379;SDS011;38377;47.418;18.882;2023-08-30T13:51:34;5.35;;;3.70;;
38379;SDS011;38377;47.418;18.882;2023-08-30T13:53:59;5.30;;;3.72;;
38379;SDS011;38377;47.418;18.882;2023-08-30T13:56:25;4.53;;;4.05;;
38379;SDS011;38377;47.418;18.882;2023-08-30T13:58:51;4.57;;;3.80;;
38379;SDS011;38377;47.418;18.882;2023-08-30T14:01:16;3.88;;;3.22;;
38379;SDS011;38377;47.418;18.882;2023-08-30T14:03:42;3.90;;;3.45;;
38379;SDS011;38377;47.418;18.882;2023-08-30T14:06:09;3.70;;;3.33;;
38379;SDS011;38377;47.418;18.882;2023-08-30T14:08:34;4.20;;;2.85;;
38379;SDS011;38377;47.418;18.882;2023-08-30T14:11:00;3.28;;;2.97;;
38379;SDS011;38377;47.418;18.882;2023-08-30T14:13:26;3.30;;;2.88;;
38379;SDS011;38377;47.418;18.882;2023-08-30T14:18:23;4.88;;;3.40;;
38379;SDS011;38377;47.418;18.882;2023-08-30T14:20:49;3.97;;;3.33;;
38379;SDS011;38377;47.418;18.882;2023-08-30T14:23:14;4.03;;;3.10;;
38379;SDS011;38377;47.418;18.882;2023-08-30T14:25:40;5.18;;;3.35;;
38379;SDS011;38377;47.418;18.882;2023-08-30T14:28:06;5.45;;;3.30;;